Time;durP1;ratioP1;P1;durP2;ratioP2;P2;SDS_P1;SDS_P2;PMS_P1;PMS_P2;Temp;Humidity;BMP_temperature;BMP_pressure;BME280_temperature;BME280_humidity;BME280_pressure;Samples;Min_cycle;Max_cycle;Signal;HPM_P1;HPM_P2
2020/03/21 00:01:32;;;;;;;6.19;5.17;;;;;;;19.93;41.79;101085.25;;;;-51
2020/03/21 00:04:32;;;;;;;5.96;5.19;;;;;;;19.91;41.85;101081.91;;;;-52
2020/03/21 00:07:32;;;;;;;5.85;5.25;;;;;;;19.90;41.81;101081.11;;;;-51
2020/03/21 00:10:32;;;;;;;5.87;5.21;;;;;;;19.89;41.84;101077.04;;;;-50
2020/03/21 00:13:32;;;;;;;5.75;5.15;;;;;;;19.88;41.78;101078.83;;;;-52
2020/03/21 00:16:32;;;;;;;5.90;5.26;;;;;;;19.87;41.81;101082.47;;;;-51
2020/03/21 00:19:32;;;;;;;5.61;4.91;;;;;;;19.87;41.82;101080.01;;;;-51
2020/03/21 00:22:32;;;;;;;6.26;5.13;;;;;;;19.86;41.84;101083.98;;;;-51
2020/03/21 00:25:32;;;;;;;5.84;5.23;;;;;;;19.84;41.75;101089.14;;;;-51
2020/03/21 00:28:32;;;;;;;5.60;4.97;;;;;;;19.82;41.74;101087.23;;;;-50
2020/03/21 00:31:31;;;;;;;6.77;5.20;;;;;;;19.82;41.79;101088.73;;;;-51
2020/03/21 00:34:31;;;;;;;5.27;4.71;;;;;;;19.81;41.79;101081.30;;;;-50
2020/03/21 00:37:32;;;;;;;5.91;4.88;;;;;;;19.80;41.81;101074.61;;;;-50
2020/03/21 00:40:32;;;;;;;5.34;4.55;;;;;;;19.78;41.77;101069.65;;;;-50
2020/03/21 00:43:32;;;;;;;5.79;5.19;;;;;;;19.77;41.79;101068.76;;;;-51
2020/03/21 00:46:32;;;;;;;5.22;4.72;;;;;;;19.75;41.67;101065.23;;;;-51
2020/03/21 00:49:32;;;;;;;5.68;5.03;;;;;;;19.75;41.71;101063.16;;;;-51
2020/03/21 00:52:31;;;;;;;5.74;4.93;;;;;;;19.73;41.78;101058.48;;;;-51
2020/03/21 00:55:32;;;;;;;5.81;4.63;;;;;;;19.72;41.76;101063.89;;;;-50
2020/03/21 00:58:32;;;;;;;5.37;4.52;;;;;;;19.72;41.78;101069.22;;;;-50
2020/03/21 01:01:31;;;;;;;5.62;4.89;;;;;;;19.71;41.74;101074.06;;;;-51
2020/03/21 01:04:32;;;;;;;5.03;4.53;;;;;;;19.70;41.70;101075.96;;;;-50
2020/03/21 01:07:32;;;;;;;4.77;4.29;;;;;;;19.69;41.69;101066.92;;;;-51
2020/03/21 01:10:32;;;;;;;5.29;4.75;;;;;;;19.68;41.74;101068.00;;;;-51
2020/03/21 01:13:32;;;;;;;5.29;4.63;;;;;;;19.66;41.80;101065.09;;;;-50
2020/03/21 01:16:31;;;;;;;5.00;4.49;;;;;;;19.67;41.72;101065.13;;;;-50
2020/03/21 01:19:32;;;;;;;4.96;4.40;;;;;;;19.65;41.77;101060.11;;;;-50
2020/03/21 01:22:32;;;;;;;4.96;4.38;;;;;;;19.65;41.78;101063.92;;;;-50
2020/03/21 01:25:31;;;;;;;4.55;4.13;;;;;;;19.64;41.79;101064.13;;;;-50
2020/03/21 01:28:35;;;;;;;5.38;4.51;;;;;;;19.63;41.74;101067.33;;;;-51
2020/03/21 01:31:33;;;;;;;5.41;4.65;;;;;;;19.62;41.78;101065.03;;;;-51
2020/03/21 01:37:32;;;;;;;4.66;4.19;;;;;;;19.60;41.77;101058.40;;;;-51
2020/03/21 01:40:32;;;;;;;4.63;4.13;;;;;;;19.59;41.73;101058.84;;;;-51
2020/03/21 01:43:32;;;;;;;4.71;4.25;;;;;;;19.58;41.81;101063.59;;;;-50
2020/03/21 01:46:32;;;;;;;4.33;3.93;;;;;;;19.57;41.73;101064.04;;;;-51
2020/03/21 01:49:32;;;;;;;4.38;3.97;;;;;;;19.57;41.76;101059.34;;;;-51
2020/03/21 01:52:31;;;;;;;4.91;4.34;;;;;;;19.56;41.79;101056.51;;;;-51
2020/03/21 01:55:32;;;;;;;4.70;4.11;;;;;;;19.55;41.77;101056.28;;;;-51
2020/03/21 01:58:32;;;;;;;4.09;3.69;;;;;;;19.53;41.75;101052.09;;;;-51
2020/03/21 02:01:32;;;;;;;4.21;3.81;;;;;;;19.54;41.74;101056.16;;;;-50
2020/03/21 02:04:32;;;;;;;4.66;4.20;;;;;;;19.52;41.79;101056.39;;;;-50
2020/03/21 02:07:32;;;;;;;4.18;3.78;;;;;;;19.52;41.73;101062.15;;;;-51
2020/03/21 02:10:32;;;;;;;4.21;3.81;;;;;;;19.51;41.71;101060.92;;;;-50
2020/03/21 02:13:32;;;;;;;4.33;3.72;;;;;;;19.50;41.75;101058.86;;;;-50
2020/03/21 02:16:31;;;;;;;4.32;3.90;;;;;;;19.49;41.71;101055.28;;;;-50
2020/03/21 02:19:32;;;;;;;4.28;3.88;;;;;;;19.47;41.76;101054.79;;;;-51
2020/03/21 02:22:32;;;;;;;4.27;3.74;;;;;;;19.47;41.74;101052.54;;;;-51
2020/03/21 02:25:32;;;;;;;4.05;3.65;;;;;;;19.47;41.68;101052.60;;;;-50
2020/03/21 02:28:32;;;;;;;4.05;3.65;;;;;;;19.47;41.64;101053.67;;;;-50
2020/03/21 02:31:32;;;;;;;4.62;3.70;;;;;;;19.45;41.68;101064.39;;;;-51
2020/03/21 02:34:32;;;;;;;4.40;4.00;;;;;;;19.44;41.68;101062.77;;;;-51
2020/03/21 02:37:32;;;;;;;4.10;3.70;;;;;;;19.43;41.68;101062.31;;;;-50
2020/03/21 02:40:31;;;;;;;3.98;3.59;;;;;;;19.42;41.67;101060.37;;;;-51
2020/03/21 02:43:32;;;;;;;4.45;3.95;;;;;;;19.41;41.65;101063.20;;;;-51
2020/03/21 02:46:32;;;;;;;4.35;3.91;;;;;;;19.41;41.66;101064.40;;;;-50
2020/03/21 02:49:32;;;;;;;3.74;3.42;;;;;;;19.40;41.66;101063.11;;;;-51
2020/03/21 02:52:32;;;;;;;4.09;3.69;;;;;;;19.39;41.61;101061.82;;;;-50
2020/03/21 02:55:32;;;;;;;4.15;3.71;;;;;;;19.38;41.59;101060.66;;;;-52
2020/03/21 02:58:32;;;;;;;3.84;3.49;;;;;;;19.38;41.64;101063.34;;;;-50
2020/03/21 03:01:32;;;;;;;3.98;3.59;;;;;;;19.37;41.64;101063.66;;;;-50
2020/03/21 03:04:32;;;;;;;3.86;3.46;;;;;;;19.36;41.60;101066.47;;;;-51
2020/03/21 03:07:32;;;;;;;4.74;3.84;;;;;;;19.35;41.61;101073.27;;;;-50
2020/03/21 03:10:32;;;;;;;3.63;3.33;;;;;;;19.34;41.63;101070.75;;;;-51
2020/03/21 03:13:31;;;;;;;4.00;3.58;;;;;;;19.33;41.63;101069.19;;;;-51
2020/03/21 03:16:32;;;;;;;3.68;3.29;;;;;;;19.32;41.61;101072.77;;;;-51
2020/03/21 03:19:32;;;;;;;3.67;3.35;;;;;;;19.32;41.55;101071.14;;;;-51
2020/03/21 03:22:32;;;;;;;3.82;3.46;;;;;;;19.31;41.57;101073.89;;;;-51
2020/03/21 03:25:31;;;;;;;4.07;3.62;;;;;;;19.31;41.54;101072.77;;;;-50
2020/03/21 03:28:32;;;;;;;4.03;3.47;;;;;;;19.30;41.55;101070.20;;;;-51
2020/03/21 03:31:32;;;;;;;4.22;3.71;;;;;;;19.30;41.54;101074.38;;;;-51
2020/03/21 03:34:32;;;;;;;3.80;3.49;;;;;;;19.29;41.59;101074.83;;;;-51
2020/03/21 03:37:32;;;;;;;3.66;3.32;;;;;;;19.28;41.54;101081.37;;;;-51
2020/03/21 03:40:32;;;;;;;3.80;3.47;;;;;;;19.27;41.57;101081.02;;;;-50
2020/03/21 03:43:31;;;;;;;3.81;3.40;;;;;;;19.26;41.54;101082.48;;;;-50
2020/03/21 03:46:32;;;;;;;3.44;3.14;;;;;;;19.27;41.51;101078.07;;;;-51
2020/03/21 03:49:31;;;;;;;3.65;3.35;;;;;;;19.25;41.50;101080.75;;;;-51
2020/03/21 03:52:31;;;;;;;3.30;3.00;;;;;;;19.25;41.49;101077.06;;;;-51
2020/03/21 03:55:32;;;;;;;3.57;3.27;;;;;;;19.24;41.56;101072.22;;;;-51
2020/03/21 03:58:31;;;;;;;3.89;3.48;;;;;;;19.24;41.52;101072.38;;;;-51
2020/03/21 04:01:32;;;;;;;3.53;3.23;;;;;;;19.22;41.47;101067.20;;;;-50
2020/03/21 04:04:32;;;;;;;3.70;3.34;;;;;;;19.22;41.51;101069.70;;;;-51
2020/03/21 04:07:32;;;;;;;3.41;3.11;;;;;;;19.22;41.50;101080.75;;;;-50
2020/03/21 04:10:31;;;;;;;3.83;3.30;;;;;;;19.21;41.50;101083.55;;;;-50
2020/03/21 04:13:31;;;;;;;3.54;3.24;;;;;;;19.21;41.54;101087.63;;;;-51
2020/03/21 04:16:35;;;;;;;3.47;3.17;;;;;;;19.20;41.53;101089.52;;;;-51
2020/03/21 04:19:32;;;;;;;3.59;3.03;;;;;;;19.20;41.49;101084.98;;;;-51
2020/03/21 04:22:32;;;;;;;3.38;3.08;;;;;;;19.19;41.55;101086.61;;;;-51
2020/03/21 04:25:31;;;;;;;3.55;3.21;;;;;;;19.18;41.51;101083.72;;;;-51
2020/03/21 04:28:31;;;;;;;3.39;3.09;;;;;;;19.18;41.52;101081.36;;;;-50
2020/03/21 04:31:32;;;;;;;3.51;3.21;;;;;;;19.18;41.56;101091.64;;;;-50
2020/03/21 04:34:32;;;;;;;3.48;3.18;;;;;;;19.18;41.45;101090.13;;;;-51
2020/03/21 04:37:31;;;;;;;3.45;3.10;;;;;;;19.17;41.47;101090.30;;;;-50
2020/03/21 04:40:32;;;;;;;3.79;3.33;;;;;;;19.16;41.46;101091.23;;;;-50
2020/03/21 04:43:32;;;;;;;3.30;3.00;;;;;;;19.16;41.45;101089.62;;;;-50
2020/03/21 04:46:32;;;;;;;3.41;3.11;;;;;;;19.17;41.53;101093.81;;;;-51
2020/03/21 04:49:32;;;;;;;3.28;2.89;;;;;;;19.17;41.50;101098.83;;;;-51
2020/03/21 04:52:31;;;;;;;3.28;2.98;;;;;;;19.18;41.56;101100.95;;;;-51
2020/03/21 04:55:31;;;;;;;3.42;3.12;;;;;;;19.20;41.58;101102.81;;;;-51
2020/03/21 04:58:32;;;;;;;3.13;2.85;;;;;;;19.21;41.54;101097.78;;;;-51
2020/03/21 05:01:32;;;;;;;3.23;2.82;;;;;;;19.24;41.58;101101.70;;;;-50
2020/03/21 05:04:32;;;;;;;3.19;2.89;;;;;;;19.27;41.55;101103.62;;;;-51
2020/03/21 05:07:31;;;;;;;3.30;3.00;;;;;;;19.31;41.60;101101.85;;;;-51
2020/03/21 05:10:31;;;;;;;3.08;2.80;;;;;;;19.35;41.61;101105.55;;;;-50
2020/03/21 05:13:32;;;;;;;3.32;2.91;;;;;;;19.39;41.67;101106.82;;;;-50
2020/03/21 05:16:31;;;;;;;3.05;2.76;;;;;;;19.45;41.68;101116.05;;;;-51
2020/03/21 05:19:31;;;;;;;3.15;2.85;;;;;;;19.48;41.65;101117.50;;;;-51
2020/03/21 05:22:32;;;;;;;2.84;2.59;;;;;;;19.51;41.67;101116.81;;;;-51
2020/03/21 05:25:32;;;;;;;3.11;2.81;;;;;;;19.55;41.77;101118.04;;;;-51
2020/03/21 05:28:31;;;;;;;2.95;2.61;;;;;;;19.58;41.78;101116.70;;;;-52
2020/03/21 05:31:31;;;;;;;2.77;2.57;;;;;;;19.62;41.77;101116.98;;;;-51
2020/03/21 05:34:32;;;;;;;3.03;2.75;;;;;;;19.66;41.80;101123.34;;;;-51
2020/03/21 05:37:32;;;;;;;2.81;2.61;;;;;;;19.69;41.77;101126.03;;;;-50
2020/03/21 05:40:32;;;;;;;2.95;2.60;;;;;;;19.72;41.77;101126.53;;;;-50
2020/03/21 05:43:32;;;;;;;3.01;2.71;;;;;;;19.75;41.72;101126.84;;;;-51
2020/03/21 05:46:31;;;;;;;2.70;2.50;;;;;;;19.78;41.79;101129.66;;;;-51
2020/03/21 05:49:31;;;;;;;2.64;2.44;;;;;;;19.81;41.73;101123.27;;;;-51
2020/03/21 05:52:31;;;;;;;2.60;2.40;;;;;;;19.84;41.77;101128.36;;;;-51
2020/03/21 05:55:32;;;;;;;2.83;2.43;;;;;;;19.88;41.70;101124.14;;;;-52
2020/03/21 05:58:32;;;;;;;3.06;2.76;;;;;;;19.90;41.68;101122.98;;;;-50
2020/03/21 06:01:32;;;;;;;2.55;2.35;;;;;;;19.92;41.69;101127.83;;;;-51
2020/03/21 06:04:32;;;;;;;2.68;2.47;;;;;;;19.93;41.64;101130.95;;;;-51
2020/03/21 06:07:32;;;;;;;2.63;2.43;;;;;;;19.96;41.65;101135.54;;;;-50
2020/03/21 06:10:53;;;;;;;2.71;2.51;;;;;;;19.98;41.65;101141.52;;;;-51
2020/03/21 06:13:32;;;;;;;2.80;2.60;;;;;;;19.99;41.56;101135.00;;;;-50
2020/03/21 06:16:32;;;;;;;2.54;2.34;;;;;;;20.00;41.45;101130.94;;;;-51
2020/03/21 06:19:32;;;;;;;2.77;2.45;;;;;;;20.02;41.52;101135.50;;;;-51
2020/03/21 06:22:31;;;;;;;2.59;2.39;;;;;;;20.04;41.46;101137.91;;;;-51
2020/03/21 06:25:31;;;;;;;2.69;2.49;;;;;;;20.05;41.50;101134.38;;;;-50
2020/03/21 06:28:32;;;;;;;2.51;2.31;;;;;;;20.08;41.44;101133.59;;;;-50
2020/03/21 06:31:31;;;;;;;4.99;4.38;;;;;;;19.68;38.98;101142.40;;;;-47
2020/03/21 06:34:31;;;;;;;5.43;4.91;;;;;;;19.26;38.84;101136.74;;;;-48
2020/03/21 06:37:31;;;;;;;5.87;5.27;;;;;;;19.07;38.45;101136.86;;;;-48
2020/03/21 06:40:32;;;;;;;5.86;5.25;;;;;;;18.76;38.68;101135.33;;;;-50
2020/03/21 06:43:32;;;;;;;5.33;4.83;;;;;;;18.75;38.29;101133.88;;;;-49
2020/03/21 06:46:31;;;;;;;5.91;5.30;;;;;;;18.56;38.31;101129.56;;;;-54
2020/03/21 06:49:31;;;;;;;5.54;4.28;;;;;;;18.77;38.83;101136.01;;;;-53
2020/03/21 06:52:31;;;;;;;5.06;3.71;;;;;;;18.92;38.99;101133.19;;;;-53
2020/03/21 06:55:32;;;;;;;4.09;3.49;;;;;;;19.06;39.41;101127.87;;;;-53
2020/03/21 06:58:32;;;;;;;3.33;3.03;;;;;;;19.17;39.42;101126.34;;;;-54
2020/03/21 07:01:31;;;;;;;3.50;3.12;;;;;;;19.25;39.48;101122.34;;;;-53
2020/03/21 07:04:32;;;;;;;3.07;2.79;;;;;;;19.34;39.64;101125.35;;;;-54
2020/03/21 07:07:32;;;;;;;3.35;2.63;;;;;;;19.40;39.62;101126.16;;;;-54
2020/03/21 07:10:31;;;;;;;2.95;2.65;;;;;;;19.46;39.68;101129.44;;;;-53
2020/03/21 07:13:32;;;;;;;2.71;2.51;;;;;;;19.51;39.68;101131.89;;;;-53
2020/03/21 07:16:32;;;;;;;3.72;2.66;;;;;;;19.55;39.62;101125.82;;;;-53
2020/03/21 07:19:31;;;;;;;2.66;2.46;;;;;;;19.58;39.75;101129.50;;;;-53
2020/03/21 07:22:31;;;;;;;2.45;2.25;;;;;;;19.62;39.83;101133.39;;;;-54
2020/03/21 07:25:32;;;;;;;2.58;2.36;;;;;;;19.64;39.88;101130.56;;;;-53
2020/03/21 07:28:32;;;;;;;2.57;2.37;;;;;;;19.66;39.87;101128.59;;;;-53
2020/03/21 07:31:32;;;;;;;2.33;2.13;;;;;;;19.69;39.86;101136.86;;;;-54
2020/03/21 07:34:32;;;;;;;2.40;2.20;;;;;;;19.71;39.83;101130.83;;;;-53
2020/03/21 07:37:32;;;;;;;2.61;2.41;;;;;;;19.73;39.91;101128.98;;;;-53
2020/03/21 07:40:31;;;;;;;2.40;2.20;;;;;;;19.75;39.97;101130.36;;;;-53
2020/03/21 07:43:31;;;;;;;2.13;1.93;;;;;;;19.76;40.01;101135.02;;;;-54
2020/03/21 07:46:32;;;;;;;2.48;2.25;;;;;;;19.80;40.05;101139.66;;;;-54
2020/03/21 07:49:32;;;;;;;2.27;2.07;;;;;;;19.83;40.14;101145.33;;;;-54
2020/03/21 07:52:32;;;;;;;2.15;1.95;;;;;;;19.85;40.11;101137.91;;;;-54
2020/03/21 07:55:32;;;;;;;2.42;1.94;;;;;;;19.87;40.17;101139.18;;;;-54
2020/03/21 07:58:32;;;;;;;2.18;1.98;;;;;;;19.89;40.14;101128.84;;;;-54
2020/03/21 08:01:31;;;;;;;2.23;2.03;;;;;;;19.90;40.18;101120.80;;;;-47
2020/03/21 08:04:32;;;;;;;5.01;2.21;;;;;;;19.94;40.72;101109.83;;;;-47
2020/03/21 08:07:32;;;;;;;2.34;2.14;;;;;;;19.95;40.49;101118.78;;;;-47
2020/03/21 08:10:32;;;;;;;7.49;2.14;;;;;;;19.98;40.53;101123.38;;;;-48
2020/03/21 08:13:32;;;;;;;2.43;2.19;;;;;;;20.01;40.45;101136.07;;;;-48
2020/03/21 08:16:31;;;;;;;2.18;1.97;;;;;;;20.03;40.39;101134.50;;;;-46
2020/03/21 08:19:31;;;;;;;2.36;2.07;;;;;;;20.05;40.41;101137.23;;;;-46
2020/03/21 08:22:31;;;;;;;2.26;2.06;;;;;;;20.08;40.54;101132.42;;;;-49
2020/03/21 08:25:32;;;;;;;2.27;2.03;;;;;;;20.12;40.67;101142.86;;;;-50
2020/03/21 08:28:32;;;;;;;2.21;2.00;;;;;;;20.13;40.45;101149.72;;;;-51
2020/03/21 08:31:32;;;;;;;1.90;1.80;;;;;;;20.14;40.40;101156.71;;;;-50
2020/03/21 08:34:32;;;;;;;2.03;1.83;;;;;;;20.15;40.21;101166.43;;;;-51
2020/03/21 08:37:31;;;;;;;2.05;1.86;;;;;;;20.15;40.12;101159.80;;;;-50
2020/03/21 08:40:31;;;;;;;2.09;1.89;;;;;;;20.17;40.13;101160.73;;;;-51
2020/03/21 08:43:31;;;;;;;1.92;1.80;;;;;;;20.18;40.19;101162.53;;;;-51
2020/03/21 08:46:31;;;;;;;1.92;1.74;;;;;;;20.20;40.01;101164.65;;;;-51
2020/03/21 08:49:32;;;;;;;1.80;1.70;;;;;;;20.21;40.02;101168.16;;;;-51
2020/03/21 08:52:32;;;;;;;2.05;1.84;;;;;;;20.23;40.09;101164.40;;;;-51
2020/03/21 08:55:32;;;;;;;1.96;1.84;;;;;;;20.24;40.07;101157.52;;;;-51
2020/03/21 08:58:32;;;;;;;1.79;1.69;;;;;;;20.27;40.10;101155.45;;;;-50
2020/03/21 09:01:31;;;;;;;1.80;1.70;;;;;;;20.29;40.05;101153.59;;;;-51
2020/03/21 09:04:32;;;;;;;2.01;1.81;;;;;;;20.29;40.03;101151.98;;;;-51
2020/03/21 09:07:32;;;;;;;1.88;1.63;;;;;;;20.31;40.03;101152.99;;;;-50
2020/03/21 09:10:32;;;;;;;1.86;1.63;;;;;;;20.33;40.08;101155.72;;;;-51
2020/03/21 09:13:32;;;;;;;2.01;1.82;;;;;;;20.33;39.90;101161.58;;;;-51
2020/03/21 09:16:31;;;;;;;3.05;1.63;;;;;;;20.36;40.20;101160.29;;;;-51
2020/03/21 09:19:31;;;;;;;5.06;1.82;;;;;;;20.40;40.58;101159.50;;;;-51
2020/03/21 09:22:31;;;;;;;4.55;1.70;;;;;;;20.44;40.70;101169.00;;;;-56
2020/03/21 09:25:31;;;;;;;2.13;1.65;;;;;;;20.46;40.88;101180.05;;;;-55
2020/03/21 09:28:34;;;;;;;1.86;1.63;;;;;;;20.50;41.27;101179.81;;;;-54
2020/03/21 09:31:35;;;;;;;2.19;1.70;;;;;;;20.51;40.86;101182.78;;;;-56
2020/03/21 09:37:32;;;;;;;2.47;1.76;;;;;;;20.56;41.25;101190.99;;;;-59
2020/03/21 09:40:32;;;;;;;2.33;1.71;;;;;;;20.58;41.02;101197.13;;;;-51
2020/03/21 09:43:32;;;;;;;1.81;1.69;;;;;;;20.61;41.30;101197.73;;;;-48
2020/03/21 09:46:31;;;;;;;2.41;1.70;;;;;;;20.61;40.79;101192.70;;;;-48
2020/03/21 09:49:31;;;;;;;2.02;1.65;;;;;;;20.61;40.53;101197.17;;;;-48
2020/03/21 09:52:32;;;;;;;3.79;1.85;;;;;;;20.63;40.84;101199.19;;;;-49
2020/03/21 09:55:31;;;;;;;2.75;1.60;;;;;;;20.64;40.35;101198.95;;;;-47
2020/03/21 09:58:31;;;;;;;1.84;1.70;;;;;;;20.63;39.85;101199.08;;;;-48
2020/03/21 10:01:31;;;;;;;1.79;1.69;;;;;;;20.65;39.78;101198.61;;;;-47
2020/03/21 10:04:32;;;;;;;1.70;1.60;;;;;;;20.65;39.79;101204.33;;;;-52
2020/03/21 10:07:31;;;;;;;1.75;1.65;;;;;;;20.66;39.48;101207.28;;;;-52
2020/03/21 10:10:31;;;;;;;2.49;1.63;;;;;;;20.66;39.83;101210.75;;;;-51
2020/03/21 10:13:32;;;;;;;2.02;1.61;;;;;;;20.67;39.56;101208.35;;;;-52
2020/03/21 10:16:31;;;;;;;1.79;1.69;;;;;;;20.68;39.52;101210.75;;;;-49
2020/03/21 10:19:32;;;;;;;2.04;1.61;;;;;;;20.71;40.41;101209.39;;;;-51
2020/03/21 10:22:32;;;;;;;2.69;1.64;;;;;;;20.74;40.40;101205.08;;;;-54
2020/03/21 10:25:32;;;;;;;3.70;1.84;;;;;;;20.73;39.74;101204.28;;;;-51
2020/03/21 10:28:31;;;;;;;1.70;1.60;;;;;;;20.72;39.68;101199.20;;;;-49
2020/03/21 10:31:31;;;;;;;1.63;1.53;;;;;;;20.72;39.42;101195.84;;;;-51
2020/03/21 10:34:31;;;;;;;1.75;1.65;;;;;;;20.72;39.30;101193.48;;;;-57
2020/03/21 10:37:31;;;;;;;2.63;1.68;;;;;;;20.72;39.51;101192.48;;;;-56
2020/03/21 10:40:31;;;;;;;2.09;1.57;;;;;;;20.71;39.44;101187.34;;;;-51
2020/03/21 10:43:32;;;;;;;2.09;1.67;;;;;;;20.73;39.52;101188.51;;;;-54
2020/03/21 10:46:31;;;;;;;3.69;1.80;;;;;;;20.73;39.61;101184.09;;;;-51
2020/03/21 10:49:32;;;;;;;4.87;1.83;;;;;;;20.78;40.19;101187.42;;;;-51
2020/03/21 10:52:31;;;;;;;2.30;1.65;;;;;;;20.79;40.12;101187.41;;;;-51
2020/03/21 10:55:31;;;;;;;4.19;1.82;;;;;;;20.77;39.41;101186.64;;;;-54
2020/03/21 10:58:31;;;;;;;2.43;1.80;;;;;;;20.76;39.30;101187.31;;;;-53
2020/03/21 11:01:32;;;;;;;4.21;1.80;;;;;;;20.75;39.26;101189.90;;;;-57
2020/03/21 11:04:31;;;;;;;2.90;1.70;;;;;;;20.76;39.43;101191.34;;;;-57
2020/03/21 11:07:31;;;;;;;2.62;1.75;;;;;;;20.75;39.62;101192.92;;;;-57
2020/03/21 11:10:32;;;;;;;2.67;1.79;;;;;;;20.77;39.66;101198.95;;;;-57
2020/03/21 11:13:31;;;;;;;1.93;1.60;;;;;;;20.77;39.76;101201.20;;;;-51
2020/03/21 11:16:32;;;;;;;3.83;1.74;;;;;;;20.76;39.89;101189.23;;;;-52
2020/03/21 11:19:32;;;;;;;2.81;1.67;;;;;;;20.75;39.25;101188.39;;;;-51
2020/03/21 11:22:32;;;;;;;2.01;1.69;;;;;;;20.76;39.54;101183.13;;;;-51
2020/03/21 11:25:31;;;;;;;2.07;1.77;;;;;;;20.75;39.28;101178.88;;;;-51
2020/03/21 11:28:32;;;;;;;3.39;1.61;;;;;;;20.75;39.38;101179.20;;;;-51
2020/03/21 11:31:31;;;;;;;3.56;1.61;;;;;;;20.75;39.39;101186.77;;;;-51
2020/03/21 11:34:31;;;;;;;5.47;1.72;;;;;;;20.75;39.76;101187.88;;;;-50
2020/03/21 11:37:32;;;;;;;1.86;1.60;;;;;;;20.74;39.06;101187.05;;;;-52
2020/03/21 11:40:31;;;;;;;2.29;1.66;;;;;;;20.74;39.15;101189.47;;;;-53
2020/03/21 11:43:32;;;;;;;1.91;1.72;;;;;;;20.74;38.84;101188.73;;;;-51
2020/03/21 11:46:32;;;;;;;2.16;1.63;;;;;;;20.75;39.13;101183.08;;;;-52
2020/03/21 11:49:31;;;;;;;2.37;1.79;;;;;;;20.75;39.30;101179.05;;;;-51
2020/03/21 11:52:31;;;;;;;2.41;1.70;;;;;;;20.76;39.33;101187.09;;;;-51
2020/03/21 11:55:31;;;;;;;3.06;1.90;;;;;;;20.76;39.58;101181.11;;;;-51
2020/03/21 11:58:31;;;;;;;1.62;1.52;;;;;;;20.76;39.55;101180.38;;;;-51
2020/03/21 12:01:32;;;;;;;1.93;1.70;;;;;;;20.76;39.55;101184.64;;;;-51
2020/03/21 12:04:36;;;;;;;1.51;1.41;;;;;;;20.77;39.49;101186.77;;;;-51
2020/03/21 12:10:31;;;;;;;1.73;1.61;;;;;;;20.78;39.61;101174.90;;;;-52
2020/03/21 12:13:31;;;;;;;1.77;1.63;;;;;;;20.79;39.56;101173.04;;;;-52
2020/03/21 12:16:32;;;;;;;1.61;1.51;;;;;;;20.79;39.55;101172.64;;;;-52
2020/03/21 12:19:32;;;;;;;2.60;1.48;;;;;;;20.79;39.58;101171.92;;;;-52
2020/03/21 12:22:32;;;;;;;1.86;1.59;;;;;;;20.79;39.50;101171.19;;;;-52
2020/03/21 12:25:32;;;;;;;2.79;1.68;;;;;;;20.78;39.56;101170.14;;;;-52
2020/03/21 12:28:31;;;;;;;1.59;1.49;;;;;;;20.78;39.52;101171.20;;;;-58
2020/03/21 12:31:31;;;;;;;1.78;1.64;;;;;;;20.77;39.54;101170.76;;;;-57
2020/03/21 12:34:31;;;;;;;1.71;1.61;;;;;;;20.77;39.51;101170.98;;;;-57
2020/03/21 12:37:31;;;;;;;1.77;1.62;;;;;;;20.77;39.57;101168.30;;;;-58
2020/03/21 12:40:31;;;;;;;2.02;1.66;;;;;;;20.79;39.72;101171.26;;;;-54
2020/03/21 12:43:32;;;;;;;2.51;1.60;;;;;;;20.79;40.09;101171.36;;;;-56
2020/03/21 12:46:31;;;;;;;2.15;1.69;;;;;;;20.79;40.32;101172.98;;;;-56
2020/03/21 12:49:31;;;;;;;1.87;1.68;;;;;;;20.80;40.34;101174.89;;;;-52
2020/03/21 12:52:31;;;;;;;2.01;1.79;;;;;;;20.81;40.28;101168.20;;;;-67
2020/03/21 12:55:31;;;;;;;2.39;2.00;;;;;;;20.81;39.95;101166.39;;;;-55
2020/03/21 12:58:31;;;;;;;2.26;1.94;;;;;;;20.83;39.88;101168.47;;;;-55
2020/03/21 13:01:32;;;;;;;2.01;1.73;;;;;;;20.82;39.82;101167.58;;;;-55
2020/03/21 13:04:31;;;;;;;1.89;1.65;;;;;;;20.82;39.69;101168.36;;;;-54
2020/03/21 13:07:31;;;;;;;4.72;1.71;;;;;;;20.82;39.58;101163.61;;;;-54
2020/03/21 13:10:31;;;;;;;1.93;1.70;;;;;;;20.82;39.70;101158.58;;;;-55
2020/03/21 13:13:31;;;;;;;4.60;1.80;;;;;;;20.82;39.62;101168.86;;;;-55
2020/03/21 13:16:32;;;;;;;2.16;1.79;;;;;;;20.81;39.68;101165.89;;;;-55
2020/03/21 13:19:31;;;;;;;2.29;1.93;;;;;;;20.82;39.72;101167.35;;;;-55
2020/03/21 13:22:32;;;;;;;2.03;1.84;;;;;;;20.81;39.60;101170.93;;;;-55
2020/03/21 13:25:37;;;;;;;1.80;1.70;;;;;;;20.82;39.57;101168.14;;;;-55
2020/03/21 13:28:31;;;;;;;2.33;1.89;;;;;;;20.81;39.70;101167.12;;;;-55
2020/03/21 13:31:31;;;;;;;1.66;1.55;;;;;;;20.81;39.61;101166.13;;;;-55
2020/03/21 13:34:32;;;;;;;1.70;1.60;;;;;;;20.81;39.68;101166.36;;;;-55
2020/03/21 13:37:31;;;;;;;1.83;1.72;;;;;;;20.81;39.61;101168.91;;;;-54
2020/03/21 13:40:32;;;;;;;1.87;1.67;;;;;;;20.81;39.60;101163.10;;;;-55
2020/03/21 13:43:32;;;;;;;1.83;1.71;;;;;;;20.81;39.60;101158.13;;;;-55
2020/03/21 13:46:31;;;;;;;1.84;1.72;;;;;;;20.81;39.69;101159.41;;;;-55
2020/03/21 13:49:31;;;;;;;1.71;1.61;;;;;;;20.80;39.61;101163.22;;;;-54
2020/03/21 13:52:31;;;;;;;1.93;1.80;;;;;;;20.81;39.59;101160.04;;;;-55
2020/03/21 13:55:32;;;;;;;2.19;1.76;;;;;;;20.81;39.58;101159.41;;;;-55
2020/03/21 13:58:32;;;;;;;1.86;1.71;;;;;;;20.80;39.66;101157.61;;;;-55
2020/03/21 14:01:32;;;;;;;2.15;1.87;;;;;;;20.81;39.66;101164.78;;;;-55
2020/03/21 14:04:31;;;;;;;1.80;1.70;;;;;;;20.81;39.67;101165.05;;;;-54
2020/03/21 14:07:31;;;;;;;4.40;1.85;;;;;;;20.82;39.92;101167.24;;;;-56
2020/03/21 14:10:31;;;;;;;2.58;1.99;;;;;;;20.81;39.86;101170.26;;;;-57
2020/03/21 14:14:32;;;;;;;2.26;2.06;;;;;;;20.83;39.77;101173.17;;;;-58
2020/03/21 14:17:31;;;;;;;2.40;2.15;;;;;;;20.84;39.87;101167.11;;;;-59
2020/03/21 14:20:31;;;;;;;2.41;2.14;;;;;;;20.85;39.87;101163.20;;;;-57
2020/03/21 14:23:32;;;;;;;1.98;1.82;;;;;;;20.85;39.81;101165.09;;;;-52
2020/03/21 14:27:31;;;;;;;2.11;1.91;;;;;;;20.89;40.19;101165.14;;;;-54
2020/03/21 14:32:31;;;;;;;2.18;1.97;;;;;;;20.90;39.99;101162.10;;;;-57
2020/03/21 14:35:31;;;;;;;2.49;1.90;;;;;;;20.89;40.00;101166.52;;;;-55
2020/03/21 14:38:31;;;;;;;3.07;1.89;;;;;;;20.91;40.16;101168.59;;;;-47
2020/03/21 14:41:32;;;;;;;1.91;1.81;;;;;;;20.92;40.16;101170.50;;;;-54
2020/03/21 14:44:31;;;;;;;2.36;2.00;;;;;;;20.93;40.43;101169.08;;;;-55
2020/03/21 14:47:31;;;;;;;4.04;1.93;;;;;;;20.93;40.28;101171.27;;;;-51
2020/03/21 14:50:31;;;;;;;2.44;1.79;;;;;;;20.93;40.12;101167.69;;;;-51
2020/03/21 14:53:31;;;;;;;2.09;1.81;;;;;;;20.93;40.31;101164.72;;;;-47
2020/03/21 14:56:31;;;;;;;2.27;1.85;;;;;;;20.93;40.34;101167.23;;;;-48
2020/03/21 14:59:32;;;;;;;4.73;2.02;;;;;;;20.95;40.46;101163.70;;;;-49
2020/03/21 15:02:31;;;;;;;2.11;1.91;;;;;;;20.96;40.44;101167.05;;;;-49
2020/03/21 15:05:31;;;;;;;2.07;1.82;;;;;;;20.96;40.34;101164.48;;;;-49
2020/03/21 15:08:31;;;;;;;2.48;1.90;;;;;;;20.97;40.68;101168.27;;;;-48
2020/03/21 15:11:31;;;;;;;2.60;1.84;;;;;;;20.99;40.63;101169.28;;;;-49
2020/03/21 15:14:31;;;;;;;2.53;1.93;;;;;;;21.00;40.51;101169.77;;;;-53
2020/03/21 15:17:31;;;;;;;3.37;1.85;;;;;;;21.00;40.29;101168.82;;;;-53
2020/03/21 15:20:32;;;;;;;2.25;2.01;;;;;;;21.00;40.19;101168.66;;;;-53
2020/03/21 15:23:31;;;;;;;2.72;1.90;;;;;;;20.99;40.08;101169.61;;;;-53
2020/03/21 15:26:31;;;;;;;2.78;1.79;;;;;;;20.98;40.04;101161.84;;;;-53
2020/03/21 15:29:31;;;;;;;1.89;1.79;;;;;;;20.98;40.09;101168.55;;;;-53
2020/03/21 15:32:31;;;;;;;2.05;1.91;;;;;;;20.98;40.01;101163.51;;;;-53
2020/03/21 15:35:32;;;;;;;2.11;1.91;;;;;;;20.97;39.98;101165.14;;;;-53
2020/03/21 15:38:32;;;;;;;2.10;1.90;;;;;;;20.97;39.96;101163.87;;;;-53
2020/03/21 15:41:32;;;;;;;1.79;1.67;;;;;;;20.96;39.93;101169.30;;;;-53
2020/03/21 15:44:31;;;;;;;1.82;1.72;;;;;;;20.97;39.98;101169.17;;;;-53
2020/03/21 15:47:31;;;;;;;1.87;1.77;;;;;;;20.96;39.93;101174.40;;;;-53
2020/03/21 15:50:31;;;;;;;2.05;1.85;;;;;;;20.95;39.97;101172.16;;;;-53
2020/03/21 15:53:31;;;;;;;3.11;1.97;;;;;;;20.95;39.94;101171.09;;;;-53
2020/03/21 15:56:32;;;;;;;2.19;1.90;;;;;;;20.94;39.96;101172.16;;;;-53
2020/03/21 15:59:32;;;;;;;1.99;1.83;;;;;;;20.94;39.92;101174.83;;;;-53
2020/03/21 16:02:31;;;;;;;2.32;1.85;;;;;;;20.94;39.90;101173.83;;;;-53
2020/03/21 16:05:31;;;;;;;2.21;1.81;;;;;;;20.94;39.90;101180.04;;;;-53
2020/03/21 16:08:31;;;;;;;3.20;1.84;;;;;;;20.94;39.90;101182.73;;;;-53
2020/03/21 16:11:32;;;;;;;1.95;1.83;;;;;;;20.93;39.92;101174.19;;;;-53
2020/03/21 16:14:31;;;;;;;1.83;1.69;;;;;;;20.93;39.92;101174.84;;;;-53
2020/03/21 16:17:31;;;;;;;2.57;1.87;;;;;;;20.93;39.86;101177.94;;;;-53
2020/03/21 16:20:32;;;;;;;2.01;1.89;;;;;;;20.93;39.92;101178.77;;;;-53
2020/03/21 16:23:31;;;;;;;2.08;1.89;;;;;;;20.93;39.84;101179.37;;;;-53
2020/03/21 16:26:31;;;;;;;2.21;1.73;;;;;;;20.94;40.04;101176.92;;;;-50
2020/03/21 16:29:31;;;;;;;2.55;1.88;;;;;;;20.95;40.51;101182.34;;;;-48
2020/03/21 16:32:31;;;;;;;2.01;1.84;;;;;;;20.95;40.64;101181.95;;;;-47
2020/03/21 16:35:32;;;;;;;2.16;1.98;;;;;;;20.96;40.59;101187.70;;;;-53
2020/03/21 16:38:31;;;;;;;2.69;1.91;;;;;;;20.98;40.54;101187.02;;;;-47
2020/03/21 16:41:31;;;;;;;3.06;1.92;;;;;;;20.99;40.53;101185.63;;;;-46
2020/03/21 16:44:31;;;;;;;2.44;1.87;;;;;;;21.02;40.36;101185.27;;;;-48
2020/03/21 16:47:31;;;;;;;2.39;2.01;;;;;;;21.02;40.37;101188.90;;;;-51
2020/03/21 16:50:31;;;;;;;2.19;2.00;;;;;;;21.03;40.13;101191.47;;;;-44
2020/03/21 16:53:32;;;;;;;2.20;2.00;;;;;;;21.04;40.39;101194.95;;;;-51
2020/03/21 16:57:31;;;;;;;2.32;2.01;;;;;;;21.05;40.09;101201.04;;;;-56